createdAt,value
2019-04-26T00:00:46.547Z,10.00
2019-04-26T00:03:19.940Z,10.00
2019-04-26T00:05:50.141Z,9.90
2019-04-26T00:08:20.242Z,9.90
2019-04-26T00:11:18.229Z,9.80
2019-04-26T00:14:05.883Z,9.80
2019-04-26T00:16:44.515Z,9.80
2019-04-26T00:19:14.528Z,9.70
2019-04-26T00:21:45.978Z,9.70
2019-04-26T00:24:17.261Z,9.60
2019-04-26T00:26:47.397Z,9.60
2019-04-26T00:29:17.443Z,9.60
2019-04-26T00:31:47.575Z,9.60
2019-04-26T00:34:17.683Z,9.70
2019-04-26T00:36:47.902Z,9.70
2019-04-26T00:39:18.266Z,9.80
2019-04-26T00:41:48.593Z,9.80
2019-04-26T00:44:18.728Z,9.70
2019-04-26T00:46:50.818Z,9.60
2019-04-26T00:49:23.097Z,9.60
2019-04-26T00:51:53.925Z,9.60
2019-04-26T00:54:25.753Z,9.50
2019-04-26T00:56:56.616Z,9.50
2019-04-26T00:59:27.360Z,9.50
2019-04-26T01:02:02.902Z,9.50
2019-04-26T01:04:32.927Z,9.50
2019-04-26T01:07:03.457Z,9.50
2019-04-26T01:09:33.506Z,9.50
2019-04-26T01:12:03.651Z,9.40
2019-04-26T01:14:35.727Z,9.40
2019-04-26T01:17:05.850Z,9.40
2019-04-26T01:19:37.586Z,9.40
2019-04-26T01:22:11.377Z,9.40
2019-04-26T01:24:44.810Z,9.30
2019-04-26T01:27:16.966Z,9.30
2019-04-26T01:29:51.062Z,9.30
2019-04-26T01:32:22.095Z,9.40
2019-04-26T01:34:54.800Z,9.30
2019-04-26T01:37:25.024Z,9.30
2019-04-26T01:40:00.265Z,9.30
2019-04-26T01:42:49.203Z,9.30
2019-04-26T01:45:32.137Z,9.40
2019-04-26T01:48:27.316Z,9.40
2019-04-26T01:50:58.325Z,9.40
2019-04-26T01:53:28.784Z,9.40
2019-04-26T01:55:59.187Z,9.30
2019-04-26T01:58:29.345Z,9.30
2019-04-26T02:01:13.732Z,9.20
2019-04-26T02:03:44.042Z,9.20
2019-04-26T02:06:24.995Z,9.10
2019-04-26T02:08:47.079Z,9.00
2019-04-26T02:11:17.213Z,9.00
2019-04-26T02:13:47.608Z,9.00
2019-04-26T02:16:17.753Z,9.00
2019-04-26T02:18:48.020Z,8.90
2019-04-26T02:21:28.135Z,8.90
2019-04-26T02:24:17.302Z,8.80
2019-04-26T02:26:49.648Z,8.80
2019-04-26T02:29:25.202Z,8.70
2019-04-26T02:32:00.363Z,8.70
2019-04-26T02:34:35.236Z,8.60
2019-04-26T02:37:07.094Z,8.60
2019-04-26T02:39:40.293Z,8.50
2019-04-26T02:42:24.735Z,8.50
2019-04-26T02:45:20.081Z,8.40
2019-04-26T02:47:57.554Z,8.30
2019-04-26T02:50:44.919Z,8.40
2019-04-26T02:53:47.049Z,8.40
2019-04-26T02:56:30.302Z,8.50
2019-04-26T02:59:40.957Z,8.50
2019-04-26T03:02:23.591Z,8.50
2019-04-26T03:04:58.716Z,8.40
2019-04-26T03:07:52.505Z,8.40
2019-04-26T03:10:34.135Z,8.40
2019-04-26T03:13:07.311Z,8.30
2019-04-26T03:15:58.738Z,8.30
2019-04-26T03:18:48.072Z,8.40
2019-04-26T03:21:34.099Z,8.50
2019-04-26T03:24:12.962Z,8.50
2019-04-26T03:26:52.134Z,8.60
2019-04-26T03:29:33.608Z,8.60
2019-04-26T03:32:28.490Z,8.60
2019-04-26T03:35:43.944Z,8.60
2019-04-26T03:38:26.646Z,8.60
2019-04-26T03:41:12.882Z,8.50
2019-04-26T03:43:52.392Z,8.40
2019-04-26T03:46:49.674Z,8.40
2019-04-26T03:49:36.063Z,8.30
2019-04-26T03:52:28.483Z,8.30
2019-04-26T03:55:03.090Z,8.20
2019-04-26T03:57:48.363Z,8.10
2019-04-26T04:00:46.605Z,8.10
2019-04-26T04:03:33.633Z,8.10
2019-04-26T04:06:07.927Z,8.00
2019-04-26T04:08:49.283Z,7.90
2019-04-26T04:11:28.585Z,7.90
2019-04-26T04:14:05.254Z,7.80
2019-04-26T04:17:01.913Z,7.80
2019-04-26T04:20:22.855Z,7.80
2019-04-26T04:23:03.103Z,7.70
2019-04-26T04:25:39.255Z,7.70
2019-04-26T04:28:44.518Z,7.70
2019-04-26T04:31:22.776Z,7.60
2019-04-26T04:34:07.123Z,7.60
2019-04-26T04:36:49.400Z,7.60
2019-04-26T04:39:44.834Z,7.60
2019-04-26T04:42:43.433Z,7.60
2019-04-26T04:46:07.149Z,7.70
2019-04-26T04:48:58.123Z,7.70
2019-04-26T04:51:58.113Z,7.80
2019-04-26T04:54:37.553Z,7.90
2019-04-26T04:57:43.967Z,8.00
2019-04-26T05:00:51.416Z,8.10
2019-04-26T05:03:57.374Z,8.20
2019-04-26T05:06:45.023Z,8.20
2019-04-26T05:09:23.596Z,8.20
2019-04-26T05:12:34.148Z,8.20
2019-04-26T05:15:48.405Z,8.30
2019-04-26T05:18:52.734Z,8.40
2019-04-26T05:21:46.714Z,8.50
2019-04-26T05:24:38.820Z,8.60
2019-04-26T05:27:55.102Z,8.60
2019-04-26T05:31:07.892Z,8.50
2019-04-26T05:34:04.067Z,8.50
2019-04-26T05:36:53.401Z,8.40
2019-04-26T05:39:28.752Z,8.40
2019-04-26T05:42:41.939Z,8.50
2019-04-26T05:45:53.875Z,8.60
2019-04-26T05:48:51.881Z,8.70
2019-04-26T05:51:57.834Z,8.90
2019-04-26T05:55:11.558Z,9.10
2019-04-26T05:58:25.791Z,9.40
2019-04-26T06:02:04.844Z,9.60
2019-04-26T06:05:01.522Z,9.80
2019-04-26T06:07:56.361Z,10.00
2019-04-26T06:10:41.905Z,10.10
2019-04-26T06:13:37.995Z,10.20
2019-04-26T06:16:38.466Z,10.30
2019-04-26T06:19:25.115Z,10.40
2019-04-26T06:22:05.215Z,10.60
2019-04-26T06:25:06.008Z,10.60
2019-04-26T06:27:56.245Z,10.70
2019-04-26T06:30:45.529Z,10.80
2019-04-26T06:33:36.744Z,11.00
2019-04-26T06:36:14.862Z,11.00
2019-04-26T06:39:18.521Z,11.10
2019-04-26T06:42:23.890Z,11.10
2019-04-26T06:45:13.025Z,11.30
2019-04-26T06:47:56.938Z,11.40
2019-04-26T06:50:40.145Z,11.60
2019-04-26T06:53:23.997Z,11.70
2019-04-26T06:56:21.993Z,11.80
2019-04-26T06:59:09.069Z,11.90
2019-04-26T07:01:49.099Z,12.10
2019-04-26T07:05:00.731Z,12.30
2019-04-26T07:07:55.973Z,12.50
2019-04-26T07:10:55.344Z,12.50
2019-04-26T07:14:09.730Z,12.40
2019-04-26T07:17:00.686Z,12.30
2019-04-26T07:20:25.309Z,12.20
2019-04-26T07:23:35.474Z,12.10
2019-04-26T07:26:43.886Z,12.00
2019-04-26T07:29:58.567Z,11.80
2019-04-26T07:33:04.152Z,11.80
2019-04-26T07:35:50.883Z,11.80
2019-04-26T07:39:13.225Z,11.80
2019-04-26T07:42:37.889Z,11.70
2019-04-26T07:45:29.330Z,11.50
2019-04-26T07:48:23.547Z,11.60
2019-04-26T07:51:37.692Z,11.70
2019-04-26T07:54:40.891Z,11.90
2019-04-26T07:58:05.195Z,12.00
2019-04-26T08:00:45.070Z,12.20
2019-04-26T08:03:36.484Z,12.40
2019-04-26T08:06:32.083Z,12.50
2019-04-26T08:09:25.074Z,12.60
2019-04-26T08:11:56.791Z,12.60
2019-04-26T08:14:36.603Z,12.60
2019-04-26T08:17:47.131Z,12.70
2019-04-26T08:20:48.370Z,12.90
2019-04-26T08:23:39.290Z,13.10
2019-04-26T08:26:02.071Z,13.30
2019-04-26T08:28:35.862Z,13.60
2019-04-26T08:31:10.900Z,13.90
2019-04-26T08:33:48.839Z,14.00
2019-04-26T08:36:26.993Z,14.10
2019-04-26T08:38:55.533Z,14.20
2019-04-26T08:41:27.887Z,14.20
2019-04-26T08:44:28.279Z,14.20
2019-04-26T08:47:23.964Z,14.10
2019-04-26T08:49:57.152Z,14.10
2019-04-26T08:52:31.368Z,14.20
2019-04-26T08:55:06.621Z,14.20
2019-04-26T08:57:39.101Z,14.20
2019-04-26T09:00:23.690Z,14.20
2019-04-26T09:03:26.947Z,14.30
2019-04-26T09:06:21.950Z,14.30
2019-04-26T09:08:55.412Z,14.40
2019-04-26T09:11:33.323Z,14.60
2019-04-26T09:14:01.323Z,14.70
2019-04-26T09:16:31.558Z,14.70
2019-04-26T09:19:03.025Z,14.80
2019-04-26T09:21:43.019Z,15.00
2019-04-26T09:24:24.951Z,15.20
2019-04-26T09:27:17.177Z,15.40
2019-04-26T09:30:33.682Z,15.70
2019-04-26T09:33:08.303Z,16.30
2019-04-26T09:35:38.754Z,17.00
2019-04-26T09:38:08.834Z,17.30
2019-04-26T09:40:39.230Z,17.50
2019-04-26T09:43:24.855Z,17.60
2019-04-26T09:46:31.996Z,17.70
2019-04-26T09:49:16.646Z,17.60
2019-04-26T09:51:46.985Z,17.50
2019-04-26T09:54:17.158Z,17.20
2019-04-26T09:56:47.298Z,16.90
2019-04-26T09:59:17.844Z,16.70
2019-04-26T10:01:48.059Z,16.60
2019-04-26T10:04:18.240Z,16.60
2019-04-26T10:06:48.317Z,16.70
2019-04-26T10:09:21.165Z,16.70
2019-04-26T10:11:59.795Z,17.20
2019-04-26T10:14:48.860Z,17.60
2019-04-26T10:17:23.086Z,18.20
2019-04-26T10:19:54.819Z,18.30
2019-04-26T10:22:27.336Z,18.50
2019-04-26T10:24:57.635Z,18.70
2019-04-26T10:27:28.122Z,19.00
2019-04-26T10:30:07.663Z,19.10
2019-04-26T10:32:32.395Z,18.90
2019-04-26T10:35:02.808Z,18.60
2019-04-26T10:37:39.501Z,18.40
2019-04-26T10:40:06.691Z,18.40
2019-04-26T10:42:37.030Z,18.40
2019-04-26T10:45:10.345Z,18.50
2019-04-26T10:47:41.402Z,18.50
2019-04-26T10:50:11.841Z,18.40
2019-04-26T10:52:53.698Z,18.50
2019-04-26T10:55:36.566Z,18.60
2019-04-26T10:58:15.461Z,18.70
2019-04-26T11:00:48.372Z,18.50
2019-04-26T11:03:18.458Z,18.00
2019-04-26T11:05:53.763Z,17.50
2019-04-26T11:08:22.566Z,17.30
2019-04-26T11:10:52.738Z,17.20
2019-04-26T11:13:22.960Z,17.40
2019-04-26T11:15:53.108Z,17.60
2019-04-26T11:18:27.314Z,17.80
2019-04-26T11:20:55.169Z,17.90
2019-04-26T11:23:25.426Z,18.00
2019-04-26T11:25:57.905Z,18.00
2019-04-26T11:28:30.408Z,17.90
2019-04-26T11:31:00.588Z,18.00
2019-04-26T11:33:44.256Z,18.10
2019-04-26T11:36:07.419Z,18.40
2019-04-26T11:38:36.709Z,18.90
2019-04-26T11:41:07.214Z,19.30
2019-04-26T11:43:37.439Z,19.80
2019-04-26T11:46:07.831Z,19.80
2019-04-26T11:48:37.918Z,20.00
2019-04-26T11:51:08.072Z,19.90
2019-04-26T11:53:40.624Z,20.00
2019-04-26T11:56:10.000Z,20.00
2019-04-26T11:58:40.606Z,20.00
2019-04-26T12:01:12.420Z,20.20
2019-04-26T12:03:55.650Z,20.70
2019-04-26T12:06:42.921Z,20.80
2019-04-26T12:09:35.910Z,20.60
2019-04-26T12:12:13.051Z,20.30
2019-04-26T12:14:41.420Z,20.00
2019-04-26T12:17:16.570Z,19.70
2019-04-26T12:19:48.202Z,19.40
2019-04-26T12:22:20.931Z,19.40
2019-04-26T12:24:51.163Z,19.40
2019-04-26T12:27:21.764Z,19.40
2019-04-26T12:29:52.034Z,19.30
2019-04-26T12:32:22.181Z,19.30
2019-04-26T12:34:52.408Z,19.30
2019-04-26T12:37:22.610Z,19.20
2019-04-26T12:39:52.805Z,19.20
2019-04-26T12:42:22.964Z,19.00
2019-04-26T12:45:16.564Z,19.00
2019-04-26T12:47:48.698Z,19.00
2019-04-26T12:50:22.001Z,19.10
2019-04-26T12:52:55.697Z,19.30
2019-04-26T12:55:24.359Z,19.40
2019-04-26T12:57:54.459Z,19.40
2019-04-26T13:00:28.373Z,19.50
2019-04-26T13:03:01.298Z,19.60
2019-04-26T13:05:31.540Z,19.60
2019-04-26T13:08:01.775Z,19.90
2019-04-26T13:10:54.090Z,20.20
2019-04-26T13:13:43.326Z,20.30
2019-04-26T13:16:34.442Z,20.30
2019-04-26T13:19:07.747Z,20.00
2019-04-26T13:21:38.864Z,19.70
2019-04-26T13:24:09.175Z,19.40
2019-04-26T13:26:39.939Z,19.20
2019-04-26T13:29:10.102Z,19.20
2019-04-26T13:31:40.364Z,19.40
2019-04-26T13:34:10.577Z,19.40
2019-04-26T13:36:40.919Z,19.40
2019-04-26T13:39:17.877Z,19.30
2019-04-26T13:41:45.695Z,19.50
2019-04-26T13:44:18.415Z,19.70
2019-04-26T13:47:16.595Z,20.00
2019-04-26T13:50:13.096Z,20.10
2019-04-26T13:52:43.742Z,20.30
2019-04-26T13:55:14.431Z,20.30
2019-04-26T13:57:46.106Z,20.30
2019-04-26T14:00:23.751Z,20.10
2019-04-26T14:02:53.975Z,20.00
2019-04-26T14:05:25.469Z,20.00
2019-04-26T14:07:56.809Z,20.00
2019-04-26T14:10:30.473Z,20.30
2019-04-26T14:13:02.093Z,20.90
2019-04-26T14:15:32.392Z,21.20
2019-04-26T14:18:04.374Z,21.30
2019-04-26T14:20:35.298Z,21.10
2019-04-26T14:23:15.304Z,20.70
2019-04-26T14:26:06.967Z,20.50
2019-04-26T14:28:37.480Z,20.40
2019-04-26T14:31:07.927Z,20.30
2019-04-26T14:33:38.449Z,20.20
2019-04-26T14:36:17.641Z,20.00
2019-04-26T14:38:41.409Z,19.90
2019-04-26T14:41:13.495Z,20.00
2019-04-26T14:43:43.569Z,20.30
2019-04-26T14:46:14.556Z,20.70
2019-04-26T14:49:00.389Z,21.10
2019-04-26T14:51:21.009Z,21.10
2019-04-26T14:53:51.888Z,21.00
2019-04-26T14:56:24.786Z,20.90
2019-04-26T14:59:01.227Z,20.80
2019-04-26T15:01:47.088Z,20.90
2019-04-26T15:04:35.359Z,20.90
2019-04-26T15:07:06.874Z,20.70
2019-04-26T15:09:37.033Z,20.80
2019-04-26T15:12:11.793Z,21.40
2019-04-26T15:14:42.226Z,22.10
2019-04-26T15:17:16.283Z,22.50
2019-04-26T15:19:47.189Z,23.00
2019-04-26T15:22:35.972Z,23.70
2019-04-26T15:25:07.672Z,24.50
2019-04-26T15:27:39.580Z,25.10
2019-04-26T15:30:10.477Z,24.90
2019-04-26T15:32:40.640Z,24.20
2019-04-26T15:35:15.514Z,23.80
2019-04-26T15:37:42.915Z,24.10
2019-04-26T15:40:39.188Z,23.40
2019-04-26T15:43:27.414Z,22.80
2019-04-26T15:46:25.404Z,22.30
2019-04-26T15:49:12.408Z,22.10
2019-04-26T15:51:42.831Z,22.60
2019-04-26T15:54:13.349Z,23.40
2019-04-26T15:56:43.576Z,23.80
2019-04-26T15:59:13.821Z,24.20
2019-04-26T16:01:48.931Z,24.40
2019-04-26T16:04:19.013Z,24.10
2019-04-26T16:06:49.154Z,24.30
2019-04-26T16:09:20.741Z,24.50
2019-04-26T16:11:55.166Z,25.10
2019-04-26T16:14:30.964Z,25.40
2019-04-26T16:16:58.342Z,24.90
2019-04-26T16:19:29.090Z,24.50
2019-04-26T16:21:59.221Z,24.60
2019-04-26T16:24:29.509Z,24.80
2019-04-26T16:26:59.705Z,25.30
2019-04-26T16:29:50.954Z,25.30
2019-04-26T16:32:38.747Z,24.80
2019-04-26T16:35:12.250Z,24.00
2019-04-26T16:37:43.664Z,23.70
2019-04-26T16:40:14.131Z,22.80
2019-04-26T16:42:44.460Z,22.10
2019-04-26T16:45:14.683Z,21.30
2019-04-26T16:47:48.502Z,20.80
2019-04-26T16:50:23.250Z,20.80
2019-04-26T16:52:48.667Z,21.70
2019-04-26T16:55:21.299Z,22.70
2019-04-26T16:57:57.408Z,23.00
2019-04-26T17:00:46.639Z,22.90
2019-04-26T17:03:02.717Z,22.50
2019-04-26T17:05:46.351Z,22.70
2019-04-26T17:07:58.824Z,22.90
2019-04-26T17:10:30.547Z,22.50
2019-04-26T17:13:03.032Z,21.80
2019-04-26T17:15:34.593Z,21.50
2019-04-26T17:18:04.751Z,21.90
2019-04-26T17:20:40.538Z,22.50
2019-04-26T17:23:25.429Z,23.20
2019-04-26T17:26:29.209Z,24.00
2019-04-26T17:28:57.717Z,24.50
2019-04-26T17:31:28.130Z,23.80
2019-04-26T17:33:58.618Z,23.00
2019-04-26T17:36:29.987Z,22.20
2019-04-26T17:39:00.635Z,21.40
2019-04-26T17:41:31.347Z,21.20
2019-04-26T17:44:10.623Z,21.20
2019-04-26T17:46:36.733Z,20.90
2019-04-26T17:49:06.911Z,20.90
2019-04-26T17:51:42.447Z,20.60
2019-04-26T17:54:33.790Z,20.10
2019-04-26T17:56:42.238Z,19.60
2019-04-26T17:59:30.316Z,19.10
2019-04-26T18:01:48.023Z,18.60
2019-04-26T18:04:29.339Z,18.20
2019-04-26T18:06:57.808Z,17.90
2019-04-26T18:09:42.954Z,17.60
2019-04-26T18:12:01.693Z,17.30
2019-04-26T18:14:32.116Z,17.10
2019-04-26T18:17:08.820Z,17.00
2019-04-26T18:20:05.182Z,16.80
2019-04-26T18:22:51.854Z,16.70
2019-04-26T18:25:23.417Z,16.50
2019-04-26T18:27:53.758Z,16.40
2019-04-26T18:30:24.904Z,16.30
2019-04-26T18:32:55.098Z,16.20
2019-04-26T18:35:25.316Z,16.10
2019-04-26T18:37:55.384Z,16.00
2019-04-26T18:40:25.618Z,15.90
2019-04-26T18:43:04.004Z,15.80
2019-04-26T18:45:34.393Z,15.80
2019-04-26T18:48:04.968Z,15.80
2019-04-26T18:50:36.505Z,15.70
2019-04-26T18:53:30.516Z,15.60
2019-04-26T18:56:03.414Z,15.60
2019-04-26T18:58:34.769Z,15.50
2019-04-26T19:01:05.581Z,15.40
2019-04-26T19:03:37.095Z,15.40
2019-04-26T19:06:07.805Z,15.30
2019-04-26T19:08:47.547Z,15.30
2019-04-26T19:11:11.874Z,15.20
2019-04-26T19:14:06.536Z,15.10
2019-04-26T19:17:12.863Z,15.00
2019-04-26T19:20:02.101Z,15.00
2019-04-26T19:22:34.499Z,14.80
2019-04-26T19:25:05.254Z,14.80
2019-04-26T19:27:47.424Z,14.70
2019-04-26T19:30:10.742Z,14.60
2019-04-26T19:32:41.433Z,14.40
2019-04-26T19:35:14.310Z,14.30
2019-04-26T19:37:43.454Z,14.20
2019-04-26T19:40:15.584Z,14.00
2019-04-26T19:42:53.713Z,13.90
2019-04-26T19:45:39.540Z,13.80
2019-04-26T19:48:20.515Z,13.60
2019-04-26T19:51:09.509Z,13.50
2019-04-26T19:53:47.252Z,13.40
2019-04-26T19:56:27.689Z,13.30
2019-04-26T19:58:58.738Z,13.20
2019-04-26T20:01:29.089Z,13.10
2019-04-26T20:03:59.325Z,13.00
2019-04-26T20:06:29.541Z,13.00
2019-04-26T20:08:59.805Z,12.90
2019-04-26T20:11:31.580Z,12.80
2019-04-26T20:14:03.413Z,12.80
2019-04-26T20:16:36.435Z,12.70
2019-04-26T20:19:14.947Z,12.60
2019-04-26T20:21:41.418Z,12.60
2019-04-26T20:24:12.768Z,12.50
2019-04-26T20:26:44.708Z,12.50
2019-04-26T20:29:15.102Z,12.40
2019-04-26T20:32:05.528Z,12.50
2019-04-26T20:34:35.851Z,12.50
2019-04-26T20:37:09.117Z,12.50
2019-04-26T20:39:41.995Z,12.50
2019-04-26T20:42:12.246Z,12.50
2019-04-26T20:44:48.990Z,12.50
2019-04-26T20:47:17.708Z,12.60
2019-04-26T20:49:49.570Z,12.60
2019-04-26T20:52:21.483Z,12.60
2019-04-26T20:54:54.084Z,12.60
2019-04-26T20:57:26.648Z,12.60
2019-04-26T21:00:01.574Z,12.70
2019-04-26T21:02:26.818Z,12.70
2019-04-26T21:04:56.980Z,12.70
2019-04-26T21:07:27.095Z,12.80
2019-04-26T21:09:57.201Z,12.80
2019-04-26T21:12:27.461Z,12.80
2019-04-26T21:14:58.446Z,12.80
2019-04-26T21:17:28.538Z,12.80
2019-04-26T21:19:59.095Z,12.80
2019-04-26T21:22:29.142Z,12.70
2019-04-26T21:25:05.082Z,12.60
2019-04-26T21:27:55.813Z,12.40
2019-04-26T21:30:38.590Z,12.30
2019-04-26T21:33:28.685Z,12.20
2019-04-26T21:36:10.050Z,12.10
2019-04-26T21:39:07.431Z,12.00
2019-04-26T21:41:40.426Z,11.90
2019-04-26T21:44:12.256Z,11.80
2019-04-26T21:46:41.154Z,11.70
2019-04-26T21:49:13.593Z,11.60
2019-04-26T21:51:44.705Z,11.60
2019-04-26T21:54:18.107Z,11.50
2019-04-26T21:56:49.621Z,11.40
2019-04-26T21:59:18.570Z,11.40
2019-04-26T22:01:53.895Z,11.30
2019-04-26T22:04:20.880Z,11.20
2019-04-26T22:06:50.978Z,11.10
2019-04-26T22:09:46.278Z,11.10
2019-04-26T22:12:16.865Z,11.00
2019-04-26T22:14:57.969Z,11.00
2019-04-26T22:17:40.429Z,11.00
2019-04-26T22:20:29.419Z,10.90
2019-04-26T22:23:26.015Z,10.90
2019-04-26T22:26:00.278Z,10.90
2019-04-26T22:28:31.298Z,10.80
2019-04-26T22:31:06.880Z,10.80
2019-04-26T22:33:34.095Z,10.80
2019-04-26T22:36:04.134Z,10.70
2019-04-26T22:38:34.695Z,10.70
2019-04-26T22:41:05.190Z,10.60
2019-04-26T22:43:58.798Z,10.60
2019-04-26T22:47:03.530Z,10.60
2019-04-26T22:49:34.953Z,10.60
2019-04-26T22:52:06.454Z,10.60
2019-04-26T22:54:37.691Z,10.70
2019-04-26T22:57:13.131Z,10.70
2019-04-26T22:59:43.262Z,10.70
2019-04-26T23:02:18.410Z,10.70
2019-04-26T23:04:49.045Z,10.70
2019-04-26T23:07:24.657Z,10.60
2019-04-26T23:09:53.471Z,10.60
2019-04-26T23:13:01.887Z,10.50
2019-04-26T23:15:46.924Z,10.40
2019-04-26T23:18:43.762Z,10.30
2019-04-26T23:21:16.360Z,10.20
2019-04-26T23:23:46.475Z,10.10
2019-04-26T23:26:16.644Z,10.10
2019-04-26T23:28:46.662Z,10.00
2019-04-26T23:31:16.798Z,10.00
2019-04-26T23:33:46.825Z,10.00
2019-04-26T23:36:18.355Z,9.90
2019-04-26T23:38:49.055Z,9.80
2019-04-26T23:41:19.239Z,9.80
2019-04-26T23:43:49.561Z,9.80
2019-04-26T23:46:22.823Z,9.70
2019-04-26T23:48:51.349Z,9.70
2019-04-26T23:51:21.406Z,9.70
2019-04-26T23:53:55.027Z,9.70
2019-04-26T23:56:25.326Z,9.70
2019-04-26T23:58:57.412Z,9.70
